sensor_id;sensor_type;location;lat;lon;timestamp;pressure;altitude;pressure_sealevel;temperature;humidity
63654;BME280;49809;47.418;19.080;2024-03-17T00:00:31;100742.59;;;11.21;88.40
63654;BME280;49809;47.418;19.080;2024-03-17T00:03:34;100734.78;;;11.15;88.57
63654;BME280;49809;47.418;19.080;2024-03-17T00:06:38;100738.00;;;11.17;89.16
63654;BME280;49809;47.418;19.080;2024-03-17T00:09:40;100743.31;;;11.17;89.11
63654;BME280;49809;47.418;19.080;2024-03-17T00:12:43;100741.13;;;11.14;89.24
63654;BME280;49809;47.418;19.080;2024-03-17T00:15:48;100738.75;;;11.12;89.11
63654;BME280;49809;47.418;19.080;2024-03-17T00:18:50;100738.97;;;11.11;88.67
63654;BME280;49809;47.418;19.080;2024-03-17T00:21:53;100728.69;;;11.14;88.72
63654;BME280;49809;47.418;19.080;2024-03-17T00:25:17;100741.72;;;11.16;88.42
63654;BME280;49809;47.418;19.080;2024-03-17T00:28:21;100742.75;;;11.15;88.50
63654;BME280;49809;47.418;19.080;2024-03-17T00:31:23;100747.16;;;11.09;89.22
63654;BME280;49809;47.418;19.080;2024-03-17T00:34:28;100740.44;;;11.02;88.89
63654;BME280;49809;47.418;19.080;2024-03-17T00:37:30;100745.16;;;11.00;89.46
63654;BME280;49809;47.418;19.080;2024-03-17T00:40:33;100746.16;;;10.94;89.65
63654;BME280;49809;47.418;19.080;2024-03-17T00:43:38;100754.56;;;10.90;89.62
63654;BME280;49809;47.418;19.080;2024-03-17T00:46:44;100756.53;;;10.78;90.08
63654;BME280;49809;47.418;19.080;2024-03-17T00:49:46;100753.78;;;10.73;90.74
63654;BME280;49809;47.418;19.080;2024-03-17T00:52:54;100755.87;;;10.71;90.64
63654;BME280;49809;47.418;19.080;2024-03-17T00:56:02;100755.06;;;10.71;91.09
63654;BME280;49809;47.418;19.080;2024-03-17T00:59:04;100753.94;;;10.67;91.58
63654;BME280;49809;47.418;19.080;2024-03-17T01:02:26;100753.53;;;10.58;91.59
63654;BME280;49809;47.418;19.080;2024-03-17T01:05:28;100754.09;;;10.60;91.58
63654;BME280;49809;47.418;19.080;2024-03-17T01:08:32;100753.16;;;10.50;91.91
63654;BME280;49809;47.418;19.080;2024-03-17T01:11:45;100747.59;;;10.51;92.08
63654;BME280;49809;47.418;19.080;2024-03-17T01:14:46;100757.94;;;10.36;93.32
63654;BME280;49809;47.418;19.080;2024-03-17T01:17:49;100754.56;;;10.40;93.06
63654;BME280;49809;47.418;19.080;2024-03-17T01:20:52;100755.53;;;10.34;92.96
63654;BME280;49809;47.418;19.080;2024-03-17T01:23:56;100755.47;;;10.18;94.19
63654;BME280;49809;47.418;19.080;2024-03-17T01:26:59;100750.88;;;10.13;94.46
63654;BME280;49809;47.418;19.080;2024-03-17T01:30:27;100749.25;;;10.12;94.49
63654;BME280;49809;47.418;19.080;2024-03-17T01:33:28;100752.50;;;10.02;95.12
63654;BME280;49809;47.418;19.080;2024-03-17T01:36:33;100751.53;;;9.92;95.62
63654;BME280;49809;47.418;19.080;2024-03-17T01:39:36;100746.06;;;9.82;96.26
63654;BME280;49809;47.418;19.080;2024-03-17T01:42:42;100751.66;;;9.85;96.27
63654;BME280;49809;47.418;19.080;2024-03-17T01:45:43;100745.72;;;9.78;96.65
63654;BME280;49809;47.418;19.080;2024-03-17T01:48:45;100745.06;;;9.71;97.12
63654;BME280;49809;47.418;19.080;2024-03-17T01:51:48;100750.13;;;9.61;97.31
63654;BME280;49809;47.418;19.080;2024-03-17T01:54:54;100747.88;;;9.53;97.87
63654;BME280;49809;47.418;19.080;2024-03-17T01:57:56;100754.19;;;9.52;98.51
63654;BME280;49809;47.418;19.080;2024-03-17T02:01:05;100749.94;;;9.39;99.07
63654;BME280;49809;47.418;19.080;2024-03-17T02:04:08;100750.41;;;9.48;99.11
63654;BME280;49809;47.418;19.080;2024-03-17T02:07:10;100748.31;;;9.50;98.92
63654;BME280;49809;47.418;19.080;2024-03-17T02:10:14;100749.34;;;9.49;98.80
63654;BME280;49809;47.418;19.080;2024-03-17T02:13:16;100757.41;;;9.42;99.18
63654;BME280;49809;47.418;19.080;2024-03-17T02:16:22;100751.97;;;9.49;99.22
63654;BME280;49809;47.418;19.080;2024-03-17T02:19:25;100746.03;;;9.42;99.79
63654;BME280;49809;47.418;19.080;2024-03-17T02:22:29;100749.91;;;9.51;99.39
63654;BME280;49809;47.418;19.080;2024-03-17T02:25:31;100744.97;;;9.54;99.20
63654;BME280;49809;47.418;19.080;2024-03-17T02:28:45;100745.87;;;9.60;98.89
63654;BME280;49809;47.418;19.080;2024-03-17T02:32:07;100739.09;;;9.64;98.48
63654;BME280;49809;47.418;19.080;2024-03-17T02:35:38;100755.50;;;9.78;97.81
63654;BME280;49809;47.418;19.080;2024-03-17T02:38:46;100759.88;;;9.72;98.03
63654;BME280;49809;47.418;19.080;2024-03-17T02:42:27;100765.97;;;9.73;97.88
63654;BME280;49809;47.418;19.080;2024-03-17T02:45:34;100773.31;;;9.71;97.91
63654;BME280;49809;47.418;19.080;2024-03-17T02:48:57;100776.09;;;9.64;98.23
63654;BME280;49809;47.418;19.080;2024-03-17T02:51:58;100777.03;;;9.58;98.55
63654;BME280;49809;47.418;19.080;2024-03-17T02:55:03;100790.69;;;9.55;98.93
63654;BME280;49809;47.418;19.080;2024-03-17T02:58:11;100776.94;;;9.53;98.82
63654;BME280;49809;47.418;19.080;2024-03-17T03:01:17;100781.16;;;9.54;98.49
63654;BME280;49809;47.418;19.080;2024-03-17T03:04:20;100777.81;;;9.58;98.56
63654;BME280;49809;47.418;19.080;2024-03-17T03:07:24;100781.75;;;9.56;98.26
63654;BME280;49809;47.418;19.080;2024-03-17T03:10:26;100771.88;;;9.51;98.46
63654;BME280;49809;47.418;19.080;2024-03-17T03:13:31;100765.19;;;9.49;98.51
63654;BME280;49809;47.418;19.080;2024-03-17T03:16:34;100780.38;;;9.42;98.88
63654;BME280;49809;47.418;19.080;2024-03-17T03:19:39;100777.75;;;9.42;98.61
63654;BME280;49809;47.418;19.080;2024-03-17T03:22:41;100783.13;;;9.47;98.12
63654;BME280;49809;47.418;19.080;2024-03-17T03:25:45;100791.75;;;9.42;98.27
63654;BME280;49809;47.418;19.080;2024-03-17T03:29:12;100796.03;;;9.43;98.32
63654;BME280;49809;47.418;19.080;2024-03-17T03:32:42;100797.75;;;9.38;98.39
63654;BME280;49809;47.418;19.080;2024-03-17T03:39:57;100803.47;;;9.35;96.20
63654;BME280;49809;47.418;19.080;2024-03-17T03:43:02;100800.72;;;9.30;94.18
63654;BME280;49809;47.418;19.080;2024-03-17T03:46:05;100795.78;;;9.33;93.10
63654;BME280;49809;47.418;19.080;2024-03-17T03:49:08;100800.81;;;9.35;91.96
63654;BME280;49809;47.418;19.080;2024-03-17T03:52:09;100820.25;;;9.29;92.12
63654;BME280;49809;47.418;19.080;2024-03-17T03:55:12;100830.59;;;9.19;93.42
63654;BME280;49809;47.418;19.080;2024-03-17T03:58:19;100838.81;;;9.10;94.84
63654;BME280;49809;47.418;19.080;2024-03-17T04:01:25;100842.72;;;8.96;96.82
63654;BME280;49809;47.418;19.080;2024-03-17T04:04:27;100857.75;;;8.84;97.54
63654;BME280;49809;47.418;19.080;2024-03-17T04:07:32;100851.91;;;8.94;96.29
63654;BME280;49809;47.418;19.080;2024-03-17T04:10:34;100853.63;;;8.88;95.81
63654;BME280;49809;47.418;19.080;2024-03-17T04:13:36;100844.88;;;8.76;96.20
63654;BME280;49809;47.418;19.080;2024-03-17T04:16:39;100856.59;;;8.80;95.58
63654;BME280;49809;47.418;19.080;2024-03-17T04:19:41;100861.47;;;8.65;95.72
63654;BME280;49809;47.418;19.080;2024-03-17T04:22:49;100870.69;;;8.74;93.28
63654;BME280;49809;47.418;19.080;2024-03-17T04:26:13;100867.31;;;8.67;92.65
63654;BME280;49809;47.418;19.080;2024-03-17T04:29:20;100884.34;;;8.53;91.78
63654;BME280;49809;47.418;19.080;2024-03-17T04:32:26;100880.78;;;8.47;91.34
63654;BME280;49809;47.418;19.080;2024-03-17T04:35:35;100873.31;;;8.44;91.05
63654;BME280;49809;47.418;19.080;2024-03-17T04:38:36;100883.50;;;8.41;90.69
63654;BME280;49809;47.418;19.080;2024-03-17T04:41:42;100871.22;;;8.35;90.46
63654;BME280;49809;47.418;19.080;2024-03-17T04:44:47;100876.47;;;8.35;91.44
63654;BME280;49809;47.418;19.080;2024-03-17T04:47:52;100865.62;;;8.24;92.80
63654;BME280;49809;47.418;19.080;2024-03-17T04:50:57;100864.59;;;8.25;93.90
63654;BME280;49809;47.418;19.080;2024-03-17T04:53:59;100865.34;;;8.14;95.10
63654;BME280;49809;47.418;19.080;2024-03-17T04:57:02;100868.44;;;8.11;96.00
63654;BME280;49809;47.418;19.080;2024-03-17T05:00:05;100871.22;;;8.16;95.57
63654;BME280;49809;47.418;19.080;2024-03-17T05:03:08;100875.16;;;8.07;96.07
63654;BME280;49809;47.418;19.080;2024-03-17T05:06:10;100871.22;;;7.98;96.75
63654;BME280;49809;47.418;19.080;2024-03-17T05:09:16;100872.25;;;7.97;96.95
63654;BME280;49809;47.418;19.080;2024-03-17T05:12:20;100879.84;;;8.05;96.28
63654;BME280;49809;47.418;19.080;2024-03-17T05:15:22;100873.25;;;7.96;95.35
63654;BME280;49809;47.418;19.080;2024-03-17T05:18:27;100872.03;;;7.99;95.26
63654;BME280;49809;47.418;19.080;2024-03-17T05:21:30;100871.78;;;8.00;95.22
63654;BME280;49809;47.418;19.080;2024-03-17T05:24:33;100874.94;;;7.91;94.96
63654;BME280;49809;47.418;19.080;2024-03-17T05:27:39;100882.19;;;7.95;93.90
63654;BME280;49809;47.418;19.080;2024-03-17T05:30:41;100881.47;;;7.88;92.03
63654;BME280;49809;47.418;19.080;2024-03-17T05:33:44;100888.41;;;7.82;91.32
63654;BME280;49809;47.418;19.080;2024-03-17T05:36:48;100894.50;;;7.83;90.06
63654;BME280;49809;47.418;19.080;2024-03-17T05:39:51;100888.06;;;7.79;88.47
63654;BME280;49809;47.418;19.080;2024-03-17T05:42:57;100887.16;;;7.67;87.57
63654;BME280;49809;47.418;19.080;2024-03-17T05:46:00;100898.34;;;7.62;84.03
63654;BME280;49809;47.418;19.080;2024-03-17T05:49:04;100891.41;;;7.68;84.38
63654;BME280;49809;47.418;19.080;2024-03-17T05:52:28;100891.53;;;7.55;84.97
63654;BME280;49809;47.418;19.080;2024-03-17T05:55:39;100900.88;;;7.51;83.63
63654;BME280;49809;47.418;19.080;2024-03-17T05:58:48;100904.38;;;7.45;84.16
63654;BME280;49809;47.418;19.080;2024-03-17T06:02:10;100907.00;;;7.45;82.74
63654;BME280;49809;47.418;19.080;2024-03-17T06:05:12;100905.28;;;7.57;82.55
63654;BME280;49809;47.418;19.080;2024-03-17T06:08:15;100903.72;;;7.49;82.74
63654;BME280;49809;47.418;19.080;2024-03-17T06:11:20;100893.41;;;7.48;82.51
63654;BME280;49809;47.418;19.080;2024-03-17T06:14:22;100904.31;;;7.51;81.17
63654;BME280;49809;47.418;19.080;2024-03-17T06:17:27;100926.03;;;7.47;81.68
63654;BME280;49809;47.418;19.080;2024-03-17T06:20:31;100920.34;;;7.50;81.22
63654;BME280;49809;47.418;19.080;2024-03-17T06:23:36;100923.19;;;7.48;81.37
63654;BME280;49809;47.418;19.080;2024-03-17T06:26:37;100921.69;;;7.59;81.36
63654;BME280;49809;47.418;19.080;2024-03-17T06:29:40;100915.63;;;7.76;80.57
63654;BME280;49809;47.418;19.080;2024-03-17T06:32:43;100909.16;;;7.97;80.90
63654;BME280;49809;47.418;19.080;2024-03-17T06:35:47;100907.41;;;8.27;79.05
63654;BME280;49809;47.418;19.080;2024-03-17T06:38:50;100920.12;;;8.49;77.60
63654;BME280;49809;47.418;19.080;2024-03-17T06:41:53;100906.19;;;8.60;77.04
63654;BME280;49809;47.418;19.080;2024-03-17T06:44:58;100912.19;;;8.67;76.15
63654;BME280;49809;47.418;19.080;2024-03-17T06:48:27;100906.09;;;8.96;76.07
63654;BME280;49809;47.418;19.080;2024-03-17T06:51:29;100908.63;;;9.03;74.59
63654;BME280;49809;47.418;19.080;2024-03-17T06:54:32;100905.31;;;8.66;75.83
63654;BME280;49809;47.418;19.080;2024-03-17T06:57:40;100920.34;;;8.95;74.69
63654;BME280;49809;47.418;19.080;2024-03-17T07:01:01;100915.81;;;9.26;72.57
63654;BME280;49809;47.418;19.080;2024-03-17T07:04:23;100925.37;;;9.85;72.23
63654;BME280;49809;47.418;19.080;2024-03-17T07:07:54;100931.03;;;9.53;70.96
63654;BME280;49809;47.418;19.080;2024-03-17T07:11:06;100921.78;;;10.02;70.02
63654;BME280;49809;47.418;19.080;2024-03-17T07:14:09;100918.03;;;9.87;70.13
63654;BME280;49809;47.418;19.080;2024-03-17T07:17:11;100912.75;;;10.50;69.25
63654;BME280;49809;47.418;19.080;2024-03-17T07:20:16;100917.78;;;11.08;65.16
63654;BME280;49809;47.418;19.080;2024-03-17T07:23:19;100926.38;;;10.99;64.47
63654;BME280;49809;47.418;19.080;2024-03-17T07:26:21;100919.28;;;10.87;62.34
63654;BME280;49809;47.418;19.080;2024-03-17T07:29:23;100921.94;;;11.04;63.89
63654;BME280;49809;47.418;19.080;2024-03-17T07:32:33;100924.50;;;10.71;62.31
63654;BME280;49809;47.418;19.080;2024-03-17T07:35:35;100919.03;;;10.89;63.08
63654;BME280;49809;47.418;19.080;2024-03-17T07:38:59;100930.50;;;10.38;62.47
63654;BME280;49809;47.418;19.080;2024-03-17T07:42:02;100923.59;;;11.22;63.30
63654;BME280;49809;47.418;19.080;2024-03-17T07:45:06;100922.56;;;10.95;60.36
63654;BME280;49809;47.418;19.080;2024-03-17T07:48:09;100922.25;;;10.63;60.52
63654;BME280;49809;47.418;19.080;2024-03-17T07:51:13;100918.66;;;11.14;59.68
63654;BME280;49809;47.418;19.080;2024-03-17T07:54:15;100916.59;;;11.49;59.38
63654;BME280;49809;47.418;19.080;2024-03-17T07:57:18;100915.44;;;11.28;59.97
63654;BME280;49809;47.418;19.080;2024-03-17T08:00:42;100918.13;;;11.79;58.68
63654;BME280;49809;47.418;19.080;2024-03-17T08:03:46;100914.25;;;11.53;57.69
63654;BME280;49809;47.418;19.080;2024-03-17T08:06:56;100903.34;;;11.49;55.94
63654;BME280;49809;47.418;19.080;2024-03-17T08:09:59;100915.78;;;10.99;56.04
63654;BME280;49809;47.418;19.080;2024-03-17T08:13:02;100906.38;;;11.08;56.86
63654;BME280;49809;47.418;19.080;2024-03-17T08:16:09;100910.97;;;11.29;55.94
63654;BME280;49809;47.418;19.080;2024-03-17T08:19:11;100910.56;;;10.75;56.90
63654;BME280;49809;47.418;19.080;2024-03-17T08:22:16;100906.75;;;11.00;56.91
63654;BME280;49809;47.418;19.080;2024-03-17T08:25:20;100919.16;;;11.44;57.22
63654;BME280;49809;47.418;19.080;2024-03-17T08:28:22;100914.81;;;11.38;58.44
63654;BME280;49809;47.418;19.080;2024-03-17T08:31:24;100919.81;;;11.18;57.10
63654;BME280;49809;47.418;19.080;2024-03-17T08:34:29;100923.88;;;11.59;56.97
63654;BME280;49809;47.418;19.080;2024-03-17T08:37:30;100915.63;;;11.39;55.20
63654;BME280;49809;47.418;19.080;2024-03-17T08:40:33;100930.00;;;11.59;56.18
63654;BME280;49809;47.418;19.080;2024-03-17T08:43:37;100920.59;;;11.68;53.78
63654;BME280;49809;47.418;19.080;2024-03-17T08:46:43;100928.56;;;11.35;52.83
63654;BME280;49809;47.418;19.080;2024-03-17T08:49:50;100930.72;;;11.21;53.34
63654;BME280;49809;47.418;19.080;2024-03-17T08:52:53;100935.06;;;11.61;51.97
63654;BME280;49809;47.418;19.080;2024-03-17T08:55:57;100929.91;;;11.21;51.73
63654;BME280;49809;47.418;19.080;2024-03-17T08:59:02;100925.41;;;11.71;50.38
63654;BME280;49809;47.418;19.080;2024-03-17T09:02:03;100921.87;;;11.83;50.02
63654;BME280;49809;47.418;19.080;2024-03-17T09:05:05;100941.16;;;11.95;48.12
63654;BME280;49809;47.418;19.080;2024-03-17T09:08:08;100920.81;;;12.00;47.99
63654;BME280;49809;47.418;19.080;2024-03-17T09:11:18;100930.47;;;12.28;46.83
63654;BME280;49809;47.418;19.080;2024-03-17T09:14:28;100929.69;;;12.11;47.50
63654;BME280;49809;47.418;19.080;2024-03-17T09:17:31;100938.66;;;12.97;46.49
63654;BME280;49809;47.418;19.080;2024-03-17T09:20:33;100952.37;;;12.89;46.21
63654;BME280;49809;47.418;19.080;2024-03-17T09:23:37;100952.59;;;12.82;45.96
63654;BME280;49809;47.418;19.080;2024-03-17T09:26:41;100961.31;;;13.31;44.34
63654;BME280;49809;47.418;19.080;2024-03-17T09:29:43;100957.41;;;13.12;44.44
63654;BME280;49809;47.418;19.080;2024-03-17T09:32:45;100968.44;;;12.99;41.79
63654;BME280;49809;47.418;19.080;2024-03-17T09:36:01;100967.16;;;13.60;41.27
63654;BME280;49809;47.418;19.080;2024-03-17T09:39:04;100960.31;;;13.37;38.21
63654;BME280;49809;47.418;19.080;2024-03-17T09:42:18;100963.00;;;13.42;38.99
63654;BME280;49809;47.418;19.080;2024-03-17T09:45:24;100971.31;;;13.83;39.57
63654;BME280;49809;47.418;19.080;2024-03-17T09:48:27;100967.84;;;14.29;38.75
63654;BME280;49809;47.418;19.080;2024-03-17T09:51:33;100972.34;;;13.82;39.47
63654;BME280;49809;47.418;19.080;2024-03-17T09:54:39;100962.06;;;14.43;37.64
63654;BME280;49809;47.418;19.080;2024-03-17T09:57:40;100964.06;;;14.20;39.25
63654;BME280;49809;47.418;19.080;2024-03-17T10:00:44;100960.34;;;14.21;40.44
63654;BME280;49809;47.418;19.080;2024-03-17T10:06:55;100964.75;;;14.53;39.73
63654;BME280;49809;47.418;19.080;2024-03-17T10:10:11;100965.28;;;13.61;40.09
63654;BME280;49809;47.418;19.080;2024-03-17T10:13:16;100963.25;;;13.73;40.62
63654;BME280;49809;47.418;19.080;2024-03-17T10:16:26;100955.75;;;13.65;40.17
63654;BME280;49809;47.418;19.080;2024-03-17T10:19:29;100954.00;;;14.27;38.53
63654;BME280;49809;47.418;19.080;2024-03-17T10:22:31;100944.59;;;13.68;37.63
63654;BME280;49809;47.418;19.080;2024-03-17T10:25:38;100949.50;;;13.86;37.99
63654;BME280;49809;47.418;19.080;2024-03-17T10:28:44;100943.19;;;13.97;37.11
63654;BME280;49809;47.418;19.080;2024-03-17T10:31:45;100938.50;;;13.72;38.26
63654;BME280;49809;47.418;19.080;2024-03-17T10:34:47;100936.06;;;14.08;38.43
63654;BME280;49809;47.418;19.080;2024-03-17T10:38:03;100944.38;;;14.21;37.61
63654;BME280;49809;47.418;19.080;2024-03-17T10:41:08;100937.84;;;14.44;38.55
63654;BME280;49809;47.418;19.080;2024-03-17T10:44:13;100931.87;;;15.09;37.37
63654;BME280;49809;47.418;19.080;2024-03-17T10:47:25;100934.53;;;15.09;38.75
63654;BME280;49809;47.418;19.080;2024-03-17T10:50:31;100926.72;;;14.72;38.43
63654;BME280;49809;47.418;19.080;2024-03-17T10:53:38;100923.84;;;15.35;36.58
63654;BME280;49809;47.418;19.080;2024-03-17T10:56:40;100918.97;;;14.56;36.86
63654;BME280;49809;47.418;19.080;2024-03-17T10:59:49;100914.28;;;15.34;36.84
63654;BME280;49809;47.418;19.080;2024-03-17T11:02:58;100918.56;;;15.30;37.18
63654;BME280;49809;47.418;19.080;2024-03-17T11:06:02;100916.13;;;15.18;36.16
63654;BME280;49809;47.418;19.080;2024-03-17T11:09:08;100918.53;;;14.99;36.57
63654;BME280;49809;47.418;19.080;2024-03-17T11:15:39;100915.03;;;15.75;35.52
63654;BME280;49809;47.418;19.080;2024-03-17T11:18:42;100919.28;;;15.86;33.43
63654;BME280;49809;47.418;19.080;2024-03-17T11:21:46;100925.72;;;14.94;35.85
63654;BME280;49809;47.418;19.080;2024-03-17T11:24:51;100922.53;;;15.27;36.32
63654;BME280;49809;47.418;19.080;2024-03-17T11:27:55;100920.66;;;15.28;35.95
63654;BME280;49809;47.418;19.080;2024-03-17T11:30:57;100919.06;;;15.16;35.64
63654;BME280;49809;47.418;19.080;2024-03-17T11:37:43;100907.84;;;15.40;34.71
63654;BME280;49809;47.418;19.080;2024-03-17T11:40:44;100906.25;;;15.59;36.07
63654;BME280;49809;47.418;19.080;2024-03-17T11:43:47;100896.34;;;15.75;35.80
63654;BME280;49809;47.418;19.080;2024-03-17T11:47:11;100895.03;;;14.96;35.71
63654;BME280;49809;47.418;19.080;2024-03-17T11:50:15;100909.47;;;15.56;34.67
63654;BME280;49809;47.418;19.080;2024-03-17T11:53:20;100916.94;;;15.39;35.08
63654;BME280;49809;47.418;19.080;2024-03-17T11:56:27;100907.31;;;15.43;34.50
63654;BME280;49809;47.418;19.080;2024-03-17T11:59:32;100913.75;;;15.57;35.42
63654;BME280;49809;47.418;19.080;2024-03-17T12:02:37;100913.47;;;15.13;37.76
63654;BME280;49809;47.418;19.080;2024-03-17T12:05:40;100901.72;;;14.99;36.89
63654;BME280;49809;47.418;19.080;2024-03-17T12:08:43;100903.31;;;14.79;37.29
63654;BME280;49809;47.418;19.080;2024-03-17T12:12:00;100901.63;;;13.91;37.02
63654;BME280;49809;47.418;19.080;2024-03-17T12:15:03;100887.94;;;14.24;38.25
63654;BME280;49809;47.418;19.080;2024-03-17T12:18:20;100893.16;;;13.57;36.38
63654;BME280;49809;47.418;19.080;2024-03-17T12:21:22;100890.09;;;13.75;37.41
63654;BME280;49809;47.418;19.080;2024-03-17T12:24:30;100883.78;;;13.91;37.68
63654;BME280;49809;47.418;19.080;2024-03-17T12:27:34;100881.50;;;14.15;38.17
63654;BME280;49809;47.418;19.080;2024-03-17T12:30:36;100878.69;;;13.85;35.59
63654;BME280;49809;47.418;19.080;2024-03-17T12:33:40;100872.72;;;13.63;36.26
63654;BME280;49809;47.418;19.080;2024-03-17T12:36:46;100882.00;;;14.02;37.22
63654;BME280;49809;47.418;19.080;2024-03-17T12:39:51;100874.50;;;13.94;35.96
63654;BME280;49809;47.418;19.080;2024-03-17T12:42:53;100870.16;;;13.78;35.03
63654;BME280;49809;47.418;19.080;2024-03-17T12:45:56;100872.44;;;14.11;33.14
63654;BME280;49809;47.418;19.080;2024-03-17T12:49:02;100855.28;;;13.82;33.21
63654;BME280;49809;47.418;19.080;2024-03-17T12:52:28;100849.69;;;13.78;34.29
63654;BME280;49809;47.418;19.080;2024-03-17T12:55:31;100865.72;;;13.93;35.12
63654;BME280;49809;47.418;19.080;2024-03-17T12:58:52;100853.00;;;13.54;34.74
63654;BME280;49809;47.418;19.080;2024-03-17T13:02:13;100847.31;;;13.40;33.83
63654;BME280;49809;47.418;19.080;2024-03-17T13:05:19;100854.53;;;13.97;35.71
63654;BME280;49809;47.418;19.080;2024-03-17T13:08:26;100841.03;;;14.13;36.54
63654;BME280;49809;47.418;19.080;2024-03-17T13:11:27;100842.78;;;14.55;35.49
63654;BME280;49809;47.418;19.080;2024-03-17T13:14:30;100845.44;;;14.65;35.09
63654;BME280;49809;47.418;19.080;2024-03-17T13:17:37;100837.34;;;14.29;34.02
63654;BME280;49809;47.418;19.080;2024-03-17T13:20:40;100827.72;;;14.13;32.98
63654;BME280;49809;47.418;19.080;2024-03-17T13:23:42;100825.09;;;14.33;32.06
63654;BME280;49809;47.418;19.080;2024-03-17T13:26:44;100825.00;;;13.93;33.81
63654;BME280;49809;47.418;19.080;2024-03-17T13:29:49;100822.59;;;13.39;33.77
63654;BME280;49809;47.418;19.080;2024-03-17T13:32:54;100826.91;;;14.08;33.95
63654;BME280;49809;47.418;19.080;2024-03-17T13:36:02;100822.38;;;14.03;32.68
63654;BME280;49809;47.418;19.080;2024-03-17T13:39:06;100822.06;;;14.00;34.07
63654;BME280;49809;47.418;19.080;2024-03-17T13:42:11;100815.72;;;14.11;33.76
63654;BME280;49809;47.418;19.080;2024-03-17T13:45:13;100817.31;;;13.44;34.82
63654;BME280;49809;47.418;19.080;2024-03-17T13:48:16;100818.91;;;13.45;35.59
63654;BME280;49809;47.418;19.080;2024-03-17T13:51:20;100806.13;;;13.47;35.79
63654;BME280;49809;47.418;19.080;2024-03-17T13:54:26;100804.78;;;13.97;33.99
63654;BME280;49809;47.418;19.080;2024-03-17T13:57:31;100803.09;;;13.76;32.97
63654;BME280;49809;47.418;19.080;2024-03-17T14:00:35;100807.59;;;13.75;33.95
63654;BME280;49809;47.418;19.080;2024-03-17T14:03:39;100795.25;;;14.11;34.97
63654;BME280;49809;47.418;19.080;2024-03-17T14:06:46;100792.63;;;14.26;35.45
63654;BME280;49809;47.418;19.080;2024-03-17T14:09:50;100789.31;;;13.89;34.71
63654;BME280;49809;47.418;19.080;2024-03-17T14:12:52;100781.88;;;13.96;35.46
63654;BME280;49809;47.418;19.080;2024-03-17T14:15:58;100780.72;;;13.72;35.87
63654;BME280;49809;47.418;19.080;2024-03-17T14:19:00;100782.31;;;13.68;35.54
63654;BME280;49809;47.418;19.080;2024-03-17T14:22:05;100769.13;;;13.41;35.50
63654;BME280;49809;47.418;19.080;2024-03-17T14:25:08;100772.97;;;13.60;36.03
63654;BME280;49809;47.418;19.080;2024-03-17T14:28:18;100771.12;;;13.71;36.18
63654;BME280;49809;47.418;19.080;2024-03-17T14:31:40;100785.87;;;13.41;35.13
63654;BME280;49809;47.418;19.080;2024-03-17T14:34:48;100781.78;;;13.19;35.41
63654;BME280;49809;47.418;19.080;2024-03-17T14:37:52;100789.09;;;12.70;35.92
63654;BME280;49809;47.418;19.080;2024-03-17T14:44:48;100776.47;;;13.71;35.51
63654;BME280;49809;47.418;19.080;2024-03-17T14:48:09;100767.72;;;13.80;35.44
63654;BME280;49809;47.418;19.080;2024-03-17T14:51:10;100774.66;;;13.29;36.72
63654;BME280;49809;47.418;19.080;2024-03-17T14:54:20;100763.78;;;13.31;37.15
63654;BME280;49809;47.418;19.080;2024-03-17T14:57:25;100780.41;;;13.11;37.20
63654;BME280;49809;47.418;19.080;2024-03-17T15:00:34;100770.09;;;12.88;37.56
63654;BME280;49809;47.418;19.080;2024-03-17T15:03:36;100776.06;;;12.68;38.07
63654;BME280;49809;47.418;19.080;2024-03-17T15:06:47;100778.19;;;12.39;39.51
63654;BME280;49809;47.418;19.080;2024-03-17T15:10:11;100783.50;;;12.12;40.94
63654;BME280;49809;47.418;19.080;2024-03-17T15:13:36;100780.28;;;12.10;41.13
63654;BME280;49809;47.418;19.080;2024-03-17T15:16:38;100779.34;;;11.95;41.57
63654;BME280;49809;47.418;19.080;2024-03-17T15:19:46;100783.56;;;11.96;41.13
63654;BME280;49809;47.418;19.080;2024-03-17T15:22:49;100768.59;;;11.85;39.96
63654;BME280;49809;47.418;19.080;2024-03-17T15:25:51;100762.56;;;11.89;39.43
63654;BME280;49809;47.418;19.080;2024-03-17T15:29:09;100775.13;;;11.77;40.70
63654;BME280;49809;47.418;19.080;2024-03-17T15:32:15;100772.66;;;11.70;41.71
63654;BME280;49809;47.418;19.080;2024-03-17T15:35:18;100784.94;;;11.76;42.20
63654;BME280;49809;47.418;19.080;2024-03-17T15:38:20;100773.56;;;12.03;41.26
63654;BME280;49809;47.418;19.080;2024-03-17T15:41:23;100770.75;;;11.88;42.42
63654;BME280;49809;47.418;19.080;2024-03-17T15:44:25;100773.44;;;11.49;42.90
63654;BME280;49809;47.418;19.080;2024-03-17T15:47:32;100772.53;;;11.60;41.98
63654;BME280;49809;47.418;19.080;2024-03-17T15:50:35;100778.59;;;11.39;43.37
63654;BME280;49809;47.418;19.080;2024-03-17T15:53:37;100777.84;;;11.44;42.71
63654;BME280;49809;47.418;19.080;2024-03-17T15:56:45;100776.78;;;11.23;43.31
63654;BME280;49809;47.418;19.080;2024-03-17T15:59:47;100781.28;;;11.06;43.61
63654;BME280;49809;47.418;19.080;2024-03-17T16:02:50;100785.41;;;10.63;44.26
63654;BME280;49809;47.418;19.080;2024-03-17T16:05:52;100785.41;;;10.63;44.09
63654;BME280;49809;47.418;19.080;2024-03-17T16:09:02;100787.97;;;10.58;44.95
63654;BME280;49809;47.418;19.080;2024-03-17T16:12:05;100791.38;;;10.42;46.16
63654;BME280;49809;47.418;19.080;2024-03-17T16:15:08;100789.97;;;10.23;45.78
63654;BME280;49809;47.418;19.080;2024-03-17T16:18:15;100788.25;;;10.17;45.65
63654;BME280;49809;47.418;19.080;2024-03-17T16:21:37;100790.84;;;9.88;46.17